Time;durP1;ratioP1;P1;durP2;ratioP2;P2;SDS_P1;SDS_P2;PMS_P1;PMS_P2;Temp;Humidity;BMP_temperature;BMP_pressure;BME280_temperature;BME280_humidity;BME280_pressure;Samples;Min_cycle;Max_cycle;Signal;HPM_P1;HPM_P2
2022/09/12 00:00:10;;;;;;;17.75;8.20;;;11.50;99.90;;;;;;5030725;28;20029;-62
2022/09/12 00:02:36;;;;;;;33.50;7.38;;;11.40;99.90;;;;;;5029907;28;20026;-63
2022/09/12 00:05:02;;;;;;;12.68;8.07;;;11.40;99.90;;;;;;5030995;28;20036;-63
2022/09/12 00:07:28;;;;;;;24.00;7.30;;;11.40;99.90;;;;;;5030428;28;20029;-62
2022/09/12 00:09:53;;;;;;;17.45;7.40;;;11.40;99.90;;;;;;5029394;28;20039;-61
2022/09/12 00:12:19;;;;;;;25.08;6.65;;;11.40;99.90;;;;;;5030544;28;20057;-61
2022/09/12 00:14:44;;;;;;;13.15;7.88;;;11.30;99.90;;;;;;5030637;28;20026;-62
2022/09/12 00:17:11;;;;;;;13.68;7.55;;;11.30;99.90;;;;;;5031169;28;20108;-63
2022/09/12 00:19:36;;;;;;;12.68;6.72;;;11.20;99.90;;;;;;5029835;28;20112;-62
2022/09/12 00:22:02;;;;;;;31.20;6.78;;;11.10;99.90;;;;;;5028191;28;20104;-63
2022/09/12 00:24:28;;;;;;;41.67;7.15;;;11.10;99.90;;;;;;5024274;28;20113;-62
2022/09/12 00:26:54;;;;;;;11.75;7.10;;;11.10;99.90;;;;;;5028500;28;20650;-61
2022/09/12 00:29:21;;;;;;;12.77;6.70;;;11.00;99.90;;;;;;5029760;28;20033;-62
2022/09/12 00:31:47;;;;;;;14.23;6.78;;;11.00;99.90;;;;;;5030020;28;20529;-63
2022/09/12 00:34:13;;;;;;;17.20;8.00;;;10.90;99.90;;;;;;5028733;28;20044;-62
2022/09/12 00:36:39;;;;;;;33.72;7.65;;;10.90;99.90;;;;;;5029175;28;20446;-63
2022/09/12 00:39:05;;;;;;;22.27;7.47;;;10.90;99.90;;;;;;5029354;28;20049;-63
2022/09/12 00:41:35;;;;;;;13.68;7.72;;;10.90;99.90;;;;;;5028993;28;20056;-62
2022/09/12 00:44:21;;;;;;;26.83;6.63;;;10.90;99.90;;;;;;5029023;28;20072;-62
2022/09/12 00:46:57;;;;;;;17.83;7.15;;;10.80;99.90;;;;;;5018634;28;20055;-63
2022/09/12 00:49:52;;;;;;;41.78;6.30;;;10.80;99.90;;;;;;5030591;28;20044;-62
2022/09/12 00:52:42;;;;;;;41.42;6.80;;;10.90;99.90;;;;;;5028126;28;20087;-62
2022/09/12 00:55:19;;;;;;;14.88;6.63;;;10.90;99.90;;;;;;5015029;28;20467;-61
2022/09/12 00:57:54;;;;;;;10.93;6.53;;;10.90;99.90;;;;;;5030909;28;20074;-62
2022/09/12 01:00:23;;;;;;;42.38;5.97;;;10.80;99.90;;;;;;5029279;28;20026;-62
2022/09/12 01:02:53;;;;;;;15.25;6.00;;;10.80;99.90;;;;;;5028995;28;20029;-63
2022/09/12 01:05:19;;;;;;;62.17;7.32;;;10.80;99.90;;;;;;5029475;28;20478;-62
2022/09/12 01:07:47;;;;;;;15.23;5.90;;;10.80;99.90;;;;;;5029094;28;20032;-63
2022/09/12 01:10:14;;;;;;;28.38;6.50;;;10.80;99.90;;;;;;5028842;28;20041;-62
2022/09/12 01:12:41;;;;;;;37.20;6.07;;;10.70;99.90;;;;;;5027859;28;20470;-63
2022/09/12 01:15:07;;;;;;;55.83;6.15;;;10.70;99.90;;;;;;5029499;28;20033;-63
2022/09/12 01:17:52;;;;;;;26.20;5.50;;;10.60;99.90;;;;;;5030152;28;20030;-63
2022/09/12 01:20:37;;;;;;;9.68;5.15;;;10.70;99.90;;;;;;5028102;28;20084;-62
2022/09/12 01:23:21;;;;;;;9.27;4.95;;;10.70;99.90;;;;;;5027059;28;20038;-62
2022/09/12 01:26:25;;;;;;;17.15;5.53;;;10.70;99.90;;;;;;5025412;28;20028;-62
2022/09/12 01:29:20;;;;;;;8.75;5.60;;;10.80;99.90;;;;;;5029619;28;20037;-62
2022/09/12 01:31:59;;;;;;;27.58;5.30;;;10.70;99.90;;;;;;5025661;28;20042;-62
2022/09/12 01:34:27;;;;;;;9.65;5.15;;;10.60;99.90;;;;;;5027746;28;20076;-62
2022/09/12 01:36:56;;;;;;;9.70;5.63;;;10.60;99.90;;;;;;5025740;28;20030;-63
2022/09/12 01:40:00;;;;;;;8.27;5.32;;;10.50;99.90;;;;;;5030002;28;20226;-62
2022/09/12 01:42:33;;;;;;;10.98;5.40;;;10.40;99.90;;;;;;5030066;28;20155;-63
2022/09/12 01:45:02;;;;;;;19.65;5.38;;;10.40;99.90;;;;;;5027671;28;20028;-62
2022/09/12 01:47:37;;;;;;;8.88;4.38;;;10.50;99.90;;;;;;5030572;28;20033;-63
2022/09/12 01:50:14;;;;;;;7.93;5.20;;;10.50;99.90;;;;;;5027481;28;20160;-61
2022/09/12 01:52:58;;;;;;;28.67;5.53;;;10.50;99.90;;;;;;5028549;28;20040;-62
2022/09/12 01:55:35;;;;;;;46.58;5.90;;;10.60;99.90;;;;;;5028590;28;20034;-62
2022/09/12 01:58:21;;;;;;;46.72;5.47;;;10.50;99.90;;;;;;5029779;28;20021;-62
2022/09/12 02:00:54;;;;;;;13.60;5.20;;;10.50;99.90;;;;;;5016499;28;20108;-62
2022/09/12 02:03:26;;;;;;;10.50;5.35;;;10.50;99.90;;;;;;5027220;28;20033;-61
2022/09/12 02:06:07;;;;;;;45.50;4.85;;;10.40;99.90;;;;;;5025088;28;20042;-63
2022/09/12 02:08:41;;;;;;;37.83;5.60;;;10.30;99.90;;;;;;5024972;28;20402;-63
2022/09/12 02:11:09;;;;;;;8.43;5.13;;;10.40;99.90;;;;;;5029356;28;20037;-61
2022/09/12 02:13:50;;;;;;;36.60;5.25;;;10.40;99.90;;;;;;5028155;28;20051;-62
2022/09/12 02:16:18;;;;;;;15.18;4.93;;;10.40;99.90;;;;;;5029558;28;20029;-62
2022/09/12 02:18:50;;;;;;;37.35;5.45;;;10.30;99.90;;;;;;5027506;28;20068;-62
2022/09/12 02:21:18;;;;;;;7.80;5.00;;;10.40;99.90;;;;;;5028087;28;20064;-63
2022/09/12 02:23:49;;;;;;;7.03;4.30;;;10.30;99.90;;;;;;5024562;28;20042;-63
2022/09/12 02:26:22;;;;;;;7.88;4.75;;;10.30;99.90;;;;;;5020847;28;20493;-62
2022/09/12 02:28:48;;;;;;;26.88;5.00;;;10.20;99.90;;;;;;5029289;28;20485;-61
2022/09/12 02:31:31;;;;;;;16.50;5.05;;;10.10;99.90;;;;;;5025936;28;20057;-63
2022/09/12 02:34:02;;;;;;;17.35;4.82;;;10.20;99.90;;;;;;5026119;28;20099;-63
2022/09/12 02:36:31;;;;;;;21.92;4.82;;;10.10;99.90;;;;;;5026906;28;20783;-62
2022/09/12 02:38:57;;;;;;;11.88;4.95;;;10.10;99.90;;;;;;5015961;28;20041;-62
2022/09/12 02:41:23;;;;;;;26.60;4.80;;;10.10;99.90;;;;;;5029033;28;20473;-62
2022/09/12 02:43:50;;;;;;;71.60;6.68;;;10.10;99.90;;;;;;5026042;28;20068;-61
2022/09/12 02:46:30;;;;;;;143.13;6.10;;;10.20;99.90;;;;;;5010066;28;20414;-62
2022/09/12 02:48:57;;;;;;;251.55;8.32;;;10.20;99.90;;;;;;5023662;28;20474;-62
2022/09/12 02:51:24;;;;;;;151.73;6.50;;;10.20;99.90;;;;;;5025287;28;20040;-62
2022/09/12 02:53:50;;;;;;;98.55;5.40;;;10.20;99.90;;;;;;5009121;28;20101;-63
2022/09/12 02:56:24;;;;;;;43.03;5.20;;;10.20;99.90;;;;;;5022325;28;20470;-62
2022/09/12 02:58:51;;;;;;;36.25;4.72;;;10.20;99.90;;;;;;5028844;28;20033;-62
2022/09/12 03:01:54;;;;;;;6.15;3.65;;;10.20;99.90;;;;;;5028197;28;20038;-62
2022/09/12 03:04:38;;;;;;;80.95;4.65;;;10.10;99.90;;;;;;5025457;28;20040;-62
2022/09/12 03:07:15;;;;;;;98.95;4.88;;;10.00;99.90;;;;;;5022184;28;20044;-62
2022/09/12 03:10:09;;;;;;;65.25;4.25;;;10.00;99.90;;;;;;5027143;28;20025;-62
2022/09/12 03:13:00;;;;;;;16.20;4.57;;;9.90;99.90;;;;;;5032300;28;20038;-62
2022/09/12 03:15:26;;;;;;;;;;;9.80;99.90;;;;;;5014266;28;20168;-62
2022/09/12 03:18:23;;;;;;;66.45;4.28;;;9.80;99.90;;;;;;5026224;28;20425;-62
2022/09/12 03:21:07;;;;;;;14.80;4.28;;;9.80;99.90;;;;;;5027020;28;20057;-62
2022/09/12 03:23:57;;;;;;;231.18;8.35;;;9.80;99.90;;;;;;5032238;28;20036;-62
2022/09/12 03:26:33;;;;;;;25.73;4.15;;;9.80;99.90;;;;;;5024969;28;20032;-63
2022/09/12 03:29:00;;;;;;;11.60;4.05;;;9.90;99.90;;;;;;5027869;28;20041;-62
2022/09/12 03:31:26;;;;;;;12.50;4.35;;;9.80;99.90;;;;;;5028646;28;20512;-63
2022/09/12 03:33:52;;;;;;;7.75;4.50;;;9.80;99.90;;;;;;5026314;28;20048;-63
2022/09/12 03:36:26;;;;;;;85.03;4.60;;;9.80;99.90;;;;;;5028755;28;20275;-62
2022/09/12 03:38:53;;;;;;;5.97;3.88;;;9.80;99.90;;;;;;5024784;28;20033;-63
2022/09/12 03:41:19;;;;;;;20.58;3.78;;;9.80;99.90;;;;;;5027276;28;20037;-62
2022/09/12 03:43:45;;;;;;;9.20;3.63;;;9.70;99.90;;;;;;5026772;28;20038;-62
2022/09/12 03:46:10;;;;;;;5.60;3.40;;;9.70;99.90;;;;;;5025592;28;20030;-62
2022/09/12 03:48:36;;;;;;;29.75;3.75;;;9.70;99.90;;;;;;5028419;28;20556;-63
2022/09/12 03:51:04;;;;;;;11.35;3.78;;;9.60;99.90;;;;;;5026567;28;20418;-61
2022/09/12 03:53:30;;;;;;;6.47;4.20;;;9.60;99.90;;;;;;5027733;28;20560;-61
2022/09/12 03:55:56;;;;;;;60.63;4.53;;;9.60;99.90;;;;;;5022777;28;20025;-66
2022/09/12 03:58:22;;;;;;;14.50;3.70;;;9.40;99.90;;;;;;5024461;28;20398;-64
2022/09/12 04:00:48;;;;;;;7.53;3.60;;;9.50;99.90;;;;;;5010461;28;20169;-63
2022/09/12 04:03:14;;;;;;;5.00;3.50;;;9.40;99.90;;;;;;5031213;28;20409;-62
2022/09/12 04:05:40;;;;;;;5.80;3.67;;;9.40;99.90;;;;;;5028616;28;20057;-62
2022/09/12 04:08:05;;;;;;;6.70;3.70;;;9.40;99.90;;;;;;5018703;28;20113;-61
2022/09/12 04:10:31;;;;;;;6.60;4.22;;;9.40;99.90;;;;;;5024991;28;20569;-62
2022/09/12 04:12:57;;;;;;;10.95;4.25;;;9.30;99.90;;;;;;5032814;28;20034;-63
2022/09/12 04:15:23;;;;;;;8.30;4.00;;;9.30;99.90;;;;;;5029323;28;20696;-62
2022/09/12 04:17:48;;;;;;;13.57;4.00;;;9.20;99.90;;;;;;5030925;28;20451;-62
2022/09/12 04:20:14;;;;;;;8.27;4.05;;;9.20;99.90;;;;;;5030686;28;20107;-62
2022/09/12 04:22:40;;;;;;;7.40;4.53;;;9.20;99.90;;;;;;5034109;28;20556;-61
2022/09/12 04:25:06;;;;;;;12.45;3.97;;;9.30;99.90;;;;;;5030711;28;20553;-61
2022/09/12 04:27:32;;;;;;;6.72;3.95;;;9.20;99.90;;;;;;5031258;28;20077;-62
2022/09/12 04:30:00;;;;;;;7.32;3.80;;;9.10;99.90;;;;;;5032973;28;20091;-61
2022/09/12 04:32:25;;;;;;;71.15;4.75;;;9.00;99.90;;;;;;5028891;28;20053;-62
2022/09/12 04:34:51;;;;;;;109.25;5.13;;;9.10;99.90;;;;;;5027640;28;20795;-63
2022/09/12 04:37:17;;;;;;;6.85;3.70;;;9.10;99.90;;;;;;5029468;28;20033;-62
2022/09/12 04:39:43;;;;;;;8.35;3.63;;;9.20;99.90;;;;;;5030099;28;20124;-63
2022/09/12 04:42:08;;;;;;;12.38;3.85;;;9.20;99.90;;;;;;5030038;28;20573;-61
2022/09/12 04:44:34;;;;;;;14.02;3.92;;;9.10;99.90;;;;;;5028290;28;20041;-62
2022/09/12 04:47:00;;;;;;;10.50;3.28;;;9.10;99.90;;;;;;5018313;28;20033;-62
2022/09/12 04:49:25;;;;;;;105.57;4.95;;;9.10;99.90;;;;;;5027312;28;20486;-61
2022/09/12 04:51:54;;;;;;;10.60;4.05;;;9.10;99.90;;;;;;5027238;28;20072;-62
2022/09/12 04:54:20;;;;;;;18.83;3.80;;;9.00;99.90;;;;;;5019140;28;20224;-62
2022/09/12 04:56:48;;;;;;;26.70;3.95;;;8.90;99.90;;;;;;5027292;28;20123;-61
2022/09/12 04:59:15;;;;;;;10.75;3.63;;;9.00;99.90;;;;;;5025981;28;20086;-61
2022/09/12 05:01:42;;;;;;;38.88;3.75;;;9.00;99.90;;;;;;5028889;28;20056;-62
2022/09/12 05:04:09;;;;;;;19.55;3.70;;;9.00;99.90;;;;;;5027903;28;20046;-62
2022/09/12 05:06:37;;;;;;;8.15;4.10;;;9.00;99.90;;;;;;5024171;28;20508;-62
2022/09/12 05:09:04;;;;;;;9.15;4.63;;;9.00;99.90;;;;;;5025448;28;20045;-62
2022/09/12 05:11:33;;;;;;;21.50;5.25;;;9.00;99.90;;;;;;5025700;28;20052;-62
2022/09/12 05:13:59;;;;;;;130.70;5.72;;;8.90;99.90;;;;;;5028391;28;20103;-63
2022/09/12 05:16:27;;;;;;;31.55;4.85;;;9.00;99.90;;;;;;5027763;28;20474;-63
2022/09/12 05:18:52;;;;;;;46.03;4.55;;;9.10;99.90;;;;;;5027992;28;20045;-63
2022/09/12 05:21:20;;;;;;;60.00;5.05;;;9.20;99.90;;;;;;5028224;28;20038;-62
2022/09/12 05:23:49;;;;;;;57.85;5.32;;;9.20;99.90;;;;;;5029980;28;20032;-61
2022/09/12 05:26:15;;;;;;;37.35;5.88;;;9.30;99.90;;;;;;5014478;28;20033;-62
2022/09/12 05:28:42;;;;;;;67.03;5.05;;;9.30;99.90;;;;;;5027107;28;20045;-63
2022/09/12 05:31:12;;;;;;;18.75;4.05;;;9.40;99.90;;;;;;5040952;28;20068;-62
2022/09/12 05:33:41;;;;;;;53.30;3.97;;;9.30;99.90;;;;;;5035630;28;20092;-61
2022/09/12 05:36:16;;;;;;;8.13;4.88;;;9.40;99.90;;;;;;5028605;28;20156;-61
2022/09/12 05:38:43;;;;;;;127.78;6.35;;;9.50;99.90;;;;;;5027615;28;20056;-62
2022/09/12 05:41:14;;;;;;;146.02;5.90;;;9.40;99.90;;;;;;5027837;28;20044;-63
2022/09/12 05:43:41;;;;;;;77.40;5.68;;;9.50;99.90;;;;;;5029744;28;20044;-63
2022/09/12 05:46:15;;;;;;;114.28;5.68;;;9.60;99.90;;;;;;5025664;28;20037;-63
2022/09/12 05:48:43;;;;;;;81.53;5.70;;;9.60;99.90;;;;;;5029969;28;20049;-62
2022/09/12 05:51:11;;;;;;;15.30;4.53;;;9.60;99.90;;;;;;5029527;28;20496;-63
2022/09/12 05:53:38;;;;;;;8.20;3.92;;;9.60;99.90;;;;;;5029284;28;20033;-64
2022/09/12 05:56:18;;;;;;;14.75;4.97;;;9.60;99.90;;;;;;5026153;28;20125;-62
2022/09/12 05:58:46;;;;;;;39.22;4.90;;;9.60;99.90;;;;;;5020971;28;20104;-63
2022/09/12 06:01:14;;;;;;;20.88;5.00;;;9.60;99.90;;;;;;5017738;28;20025;-62
2022/09/12 06:04:02;;;;;;;9.88;5.07;;;9.70;99.90;;;;;;5022917;28;20045;-63
2022/09/12 06:06:29;;;;;;;9.95;5.50;;;9.70;99.90;;;;;;5024890;28;20053;-62
2022/09/12 06:08:57;;;;;;;8.38;5.28;;;9.70;99.90;;;;;;5025630;28;20041;-66
2022/09/12 06:11:25;;;;;;;66.85;6.07;;;9.80;99.90;;;;;;5019911;28;20026;-62
2022/09/12 06:13:51;;;;;;;228.65;8.95;;;9.90;99.90;;;;;;5025403;28;20722;-63
2022/09/12 06:16:26;;;;;;;324.35;9.48;;;10.00;99.90;;;;;;5026589;28;20394;-63
2022/09/12 06:18:57;;;;;;;259.75;9.95;;;10.10;99.90;;;;;;5017526;28;20399;-64
2022/09/12 06:21:25;;;;;;;248.60;9.27;;;10.20;99.90;;;;;;5023034;28;20872;-63
2022/09/12 06:23:53;;;;;;;444.20;11.95;;;10.20;99.90;;;;;;5027620;28;20159;-62
2022/09/12 06:26:24;;;;;;;430.15;11.93;;;10.20;99.90;;;;;;5025554;28;20108;-63
2022/09/12 06:28:50;;;;;;;474.70;13.82;;;10.20;99.90;;;;;;5028321;28;20110;-63
2022/09/12 06:31:21;;;;;;;197.25;7.82;;;10.20;99.90;;;;;;5025947;28;20859;-62
2022/09/12 06:33:49;;;;;;;375.83;11.45;;;10.20;99.90;;;;;;5027291;28;20049;-62
2022/09/12 06:36:36;;;;;;;820.30;18.00;;;10.30;99.90;;;;;;5026448;28;20652;-64
2022/09/12 06:39:10;;;;;;;89.72;6.55;;;10.50;99.90;;;;;;5024780;28;20037;-62
2022/09/12 06:41:37;;;;;;;204.88;8.85;;;10.50;99.90;;;;;;5027768;28;20030;-64
2022/09/12 06:44:03;;;;;;;32.85;6.93;;;10.60;99.90;;;;;;5027665;28;20057;-63
2022/09/12 06:46:29;;;;;;;217.88;10.18;;;10.70;99.90;;;;;;5027701;28;20088;-63
2022/09/12 06:48:57;;;;;;;139.90;9.27;;;10.70;99.90;;;;;;5025374;28;20402;-63
2022/09/12 06:51:23;;;;;;;21.90;7.18;;;10.80;99.90;;;;;;5027071;28;20033;-63
2022/09/12 06:53:51;;;;;;;52.67;7.82;;;10.90;99.90;;;;;;5024998;28;20083;-63
2022/09/12 06:56:21;;;;;;;13.27;7.80;;;11.10;99.90;;;;;;5026234;28;20017;-64
2022/09/12 06:58:48;;;;;;;11.88;6.97;;;11.20;99.90;;;;;;5028498;28;20029;-67
2022/09/12 07:01:19;;;;;;;12.65;6.93;;;11.40;99.90;;;;;;5022734;28;20835;-64
2022/09/12 07:03:51;;;;;;;13.50;7.13;;;11.50;99.90;;;;;;5023341;28;20061;-63
2022/09/12 07:06:19;;;;;;;11.75;7.20;;;11.50;99.90;;;;;;5023907;28;20111;-63
2022/09/12 07:08:46;;;;;;;16.65;7.97;;;11.70;99.90;;;;;;5029293;28;20030;-62
2022/09/12 07:11:16;;;;;;;13.52;7.55;;;11.80;99.90;;;;;;5025148;28;20042;-62
2022/09/12 07:13:43;;;;;;;14.00;8.27;;;12.00;99.90;;;;;;5026811;28;20444;-63
2022/09/12 07:16:10;;;;;;;14.13;8.30;;;12.20;99.90;;;;;;5027252;28;20084;-63
2022/09/12 07:18:37;;;;;;;14.40;8.73;;;12.40;99.90;;;;;;5029116;28;20470;-63
2022/09/12 07:21:07;;;;;;;20.05;8.68;;;12.50;99.90;;;;;;5026669;28;20048;-64
2022/09/12 07:23:32;;;;;;;17.50;9.75;;;12.70;99.90;;;;;;5027642;28;20029;-63
2022/09/12 07:25:59;;;;;;;19.20;9.52;;;12.90;99.90;;;;;;5025833;28;20048;-63
2022/09/12 07:28:30;;;;;;;17.15;9.57;;;13.10;99.90;;;;;;5027641;28;20036;-63
2022/09/12 07:30:56;;;;;;;17.77;8.85;;;13.20;99.90;;;;;;5025563;28;20042;-63
2022/09/12 07:33:25;;;;;;;23.02;10.02;;;13.30;99.90;;;;;;5027430;28;20052;-64
2022/09/12 07:35:53;;;;;;;17.95;10.40;;;13.50;99.90;;;;;;5027060;28;20041;-63
2022/09/12 07:38:19;;;;;;;17.73;9.55;;;13.80;99.90;;;;;;5027342;28;20031;-62
2022/09/12 07:40:45;;;;;;;19.48;11.38;;;13.90;99.90;;;;;;5029058;28;20100;-63
2022/09/12 07:43:11;;;;;;;19.42;10.30;;;14.20;99.90;;;;;;5026958;28;20032;-63
2022/09/12 07:45:40;;;;;;;20.20;11.23;;;14.40;99.90;;;;;;5024388;28;20427;-63
2022/09/12 07:48:05;;;;;;;20.40;10.90;;;14.60;99.90;;;;;;5029916;28;20033;-64
2022/09/12 07:50:32;;;;;;;18.13;10.80;;;14.80;99.90;;;;;;5032853;28;20034;-64
2022/09/12 07:52:58;;;;;;;21.35;11.05;;;15.00;99.90;;;;;;5031657;28;20483;-66
2022/09/12 07:55:24;;;;;;;22.85;11.18;;;15.30;99.90;;;;;;5030360;28;20033;-63
2022/09/12 07:57:51;;;;;;;19.02;10.50;;;15.50;99.90;;;;;;5032102;28;20037;-62
2022/09/12 08:00:17;;;;;;;15.32;9.23;;;15.70;99.90;;;;;;5028585;28;20048;-63
2022/09/12 08:02:43;;;;;;;20.65;10.32;;;15.90;99.90;;;;;;5032405;28;20675;-63
2022/09/12 08:05:09;;;;;;;18.65;9.45;;;16.20;99.90;;;;;;5031570;28;20112;-62
2022/09/12 08:07:35;;;;;;;22.63;9.60;;;16.40;99.90;;;;;;5031180;28;20121;-63
2022/09/12 08:10:01;;;;;;;16.50;9.10;;;16.60;99.90;;;;;;5029011;28;20112;-62
2022/09/12 08:12:27;;;;;;;18.05;9.02;;;16.80;99.90;;;;;;5031624;28;20059;-62
2022/09/12 08:14:53;;;;;;;12.98;8.23;;;17.00;99.90;;;;;;5029331;28;20026;-62
2022/09/12 08:17:19;;;;;;;15.52;8.05;;;17.10;99.90;;;;;;5031197;28;20040;-62
2022/09/12 08:19:45;;;;;;;13.20;7.68;;;17.30;99.90;;;;;;5030476;28;20076;-62
2022/09/12 08:22:12;;;;;;;12.35;7.00;;;17.40;99.90;;;;;;5029717;28;20469;-62
2022/09/12 08:24:40;;;;;;;11.05;7.07;;;17.60;99.90;;;;;;5032256;28;20087;-63
2022/09/12 08:27:07;;;;;;;13.48;8.20;;;17.80;99.90;;;;;;5029181;28;20071;-63
2022/09/12 08:29:32;;;;;;;10.93;6.53;;;18.00;99.90;;;;;;5030572;28;20112;-64
2022/09/12 08:31:58;;;;;;;9.88;5.93;;;18.10;99.90;;;;;;5031308;28;20144;-63
2022/09/12 08:34:24;;;;;;;10.50;6.57;;;18.40;99.90;;;;;;5030354;28;20478;-62
2022/09/12 08:36:53;;;;;;;10.27;6.35;;;18.50;99.90;;;;;;5031634;28;20468;-64
2022/09/12 08:39:19;;;;;;;11.25;5.38;;;18.60;99.90;;;;;;5029268;28;20493;-62
2022/09/12 08:41:56;;;;;;;7.72;5.25;;;18.80;99.90;;;;;;5031877;28;20084;-63
2022/09/12 08:45:21;;;;;;;9.35;5.30;;;18.90;99.90;;;;;;5029594;28;20087;-63
2022/09/12 08:47:48;;;;;;;9.82;5.60;;;19.00;99.90;;;;;;4968557;28;20031;-64
2022/09/12 08:50:18;;;;;;;8.10;4.50;;;19.00;99.90;;;;;;4968618;28;20088;-63
2022/09/12 08:53:11;;;;;;;7.20;4.35;;;19.10;99.90;;;;;;4970502;28;20439;-64
2022/09/12 08:55:41;;;;;;;7.53;4.28;;;19.20;99.90;;;;;;4969486;28;20042;-63
2022/09/12 08:58:12;;;;;;;;;;;19.50;99.90;;;;;;4961112;28;20050;-63
2022/09/12 09:01:03;;;;;;;8.18;4.35;;;19.60;99.90;;;;;;4963749;28;20422;-63
2022/09/12 09:03:46;;;;;;;7.60;4.68;;;19.70;99.90;;;;;;4967098;28;20043;-63
2022/09/12 09:06:46;;;;;;;6.78;4.32;;;19.70;99.90;;;;;;4967760;28;20043;-62
2022/09/12 09:09:21;;;;;;;12.52;4.70;;;19.70;99.90;;;;;;4968091;28;20500;-63
2022/09/12 09:12:05;;;;;;;6.10;4.10;;;19.80;99.90;;;;;;4969026;28;20034;-63
2022/09/12 09:15:01;;;;;;;7.40;3.75;;;19.90;99.90;;;;;;4970080;28;20174;-62
2022/09/12 09:17:34;;;;;;;5.68;3.45;;;20.00;99.90;;;;;;4977760;28;20045;-63
2022/09/12 09:20:15;;;;;;;4.82;3.72;;;19.80;99.90;;;;;;5030579;28;20045;-63
2022/09/12 09:22:45;;;;;;;6.63;3.83;;;20.00;99.90;;;;;;5030631;28;20033;-63
2022/09/12 09:25:22;;;;;;;4.50;3.20;;;20.30;99.90;;;;;;5029665;28;20641;-63
2022/09/12 09:28:01;;;;;;;9.27;3.47;;;20.60;99.90;;;;;;5030492;28;20021;-61
2022/09/12 09:30:27;;;;;;;6.25;3.53;;;20.60;99.90;;;;;;5028580;28;20048;-63
2022/09/12 09:33:00;;;;;;;5.05;3.45;;;20.50;99.90;;;;;;5029971;28;20449;-66
2022/09/12 09:35:40;;;;;;;4.22;3.35;;;20.60;99.90;;;;;;5026984;28;20203;-64
2022/09/12 09:38:44;;;;;;;4.57;3.40;;;20.50;99.90;;;;;;5024798;28;20529;-65
2022/09/12 09:41:42;;;;;;;4.50;3.10;;;20.50;99.90;;;;;;5027532;28;20075;-63
2022/09/12 09:44:08;;;;;;;5.85;3.40;;;20.60;99.90;;;;;;5024582;28;20402;-65
2022/09/12 09:46:34;;;;;;;5.45;3.20;;;20.80;99.90;;;;;;5016723;28;20041;-63
2022/09/12 09:49:04;;;;;;;5.30;3.40;;;21.00;99.90;;;;;;5024148;28;20041;-64
2022/09/12 09:51:39;;;;;;;5.22;3.30;;;21.30;99.90;;;;;;5028783;28;20048;-64
2022/09/12 09:54:25;;;;;;;4.85;3.30;;;21.40;99.90;;;;;;5026876;28;20494;-65
2022/09/12 09:56:51;;;;;;;4.38;3.30;;;21.30;99.90;;;;;;5025965;28;20048;-62
2022/09/12 09:59:30;;;;;;;4.00;3.17;;;21.10;99.90;;;;;;5028073;28;20083;-64
2022/09/12 10:02:18;;;;;;;6.97;3.33;;;21.30;99.90;;;;;;5024503;28;20033;-62
2022/09/12 10:04:56;;;;;;;5.57;3.15;;;21.10;99.90;;;;;;5025407;28;20425;-62
2022/09/12 10:07:23;;;;;;;4.28;2.92;;;21.30;99.90;;;;;;5026462;28;20124;-65
2022/09/12 10:10:11;;;;;;;4.78;2.88;;;21.50;99.90;;;;;;5027973;28;20041;-63
2022/09/12 10:12:36;;;;;;;6.65;3.08;;;21.80;99.90;;;;;;5022651;28;20029;-63
2022/09/12 10:15:20;;;;;;;5.30;3.55;;;22.00;99.90;;;;;;5026613;28;20034;-62
2022/09/12 10:17:49;;;;;;;4.93;3.10;;;22.20;99.90;;;;;;5027912;28;20047;-63
2022/09/12 10:20:43;;;;;;;3.92;3.00;;;22.00;99.90;;;;;;5022408;28;20040;-63
2022/09/12 10:23:28;;;;;;;5.38;3.30;;;22.10;99.90;;;;;;5014195;28;20034;-65
2022/09/12 10:25:59;;;;;;;3.80;3.08;;;22.20;99.90;;;;;;5026113;28;20095;-64
2022/09/12 10:28:39;;;;;;;6.05;3.22;;;22.30;99.90;;;;;;5021672;28;20423;-62
2022/09/12 10:31:14;;;;;;;4.82;3.20;;;22.10;99.90;;;;;;5025575;28;20046;-64
2022/09/12 10:33:52;;;;;;;4.70;3.00;;;22.10;99.90;;;;;;5028327;28;20048;-66
2022/09/12 10:36:18;;;;;;;3.60;2.67;;;22.00;99.90;;;;;;5027587;28;20064;-64
2022/09/12 10:38:53;;;;;;;4.90;3.20;;;22.30;99.90;;;;;;5027932;28;20080;-66
2022/09/12 10:41:20;;;;;;;4.35;3.00;;;22.60;99.90;;;;;;5025476;28;20249;-64
2022/09/12 10:43:46;;;;;;;4.53;3.10;;;22.50;99.90;;;;;;5028759;28;20112;-66
2022/09/12 10:46:18;;;;;;;5.00;3.00;;;22.20;99.90;;;;;;5040717;28;20124;-65
2022/09/12 10:48:51;;;;;;;5.47;3.20;;;22.10;99.90;;;;;;5026713;28;20465;-63
2022/09/12 10:51:23;;;;;;;4.07;2.75;;;22.20;99.90;;;;;;5021011;28;20675;-64
2022/09/12 10:53:51;;;;;;;4.78;3.15;;;22.40;99.90;;;;;;5029093;28;20033;-66
2022/09/12 10:56:24;;;;;;;9.25;3.13;;;22.60;99.90;;;;;;5024839;28;20035;-64
2022/09/12 10:59:04;;;;;;;5.45;3.38;;;22.90;99.90;;;;;;5027277;28;20044;-65
2022/09/12 11:01:44;;;;;;;5.15;2.92;;;22.70;99.90;;;;;;5025271;28;20644;-63
2022/09/12 11:04:27;;;;;;;5.85;3.80;;;22.30;99.90;;;;;;5027661;28;20544;-64
2022/09/12 11:07:05;;;;;;;4.53;3.20;;;21.80;99.90;;;;;;5027539;28;20033;-66
2022/09/12 11:10:00;;;;;;;4.13;3.00;;;22.10;99.90;;;;;;5026932;28;20026;-63
2022/09/12 11:12:31;;;;;;;3.85;3.17;;;22.20;99.90;;;;;;5005153;28;20052;-64
2022/09/12 11:15:35;;;;;;;3.88;2.97;;;22.30;99.90;;;;;;5024203;28;20033;-64
2022/09/12 11:18:11;;;;;;;3.97;2.90;;;22.10;99.90;;;;;;5025704;28;20466;-64
2022/09/12 11:20:53;;;;;;;6.80;2.72;;;22.20;99.90;;;;;;5026581;28;20038;-62
2022/09/12 11:23:43;;;;;;;4.80;3.20;;;22.20;98.90;;;;;;5029271;28;20441;-68
2022/09/12 11:26:38;;;;;;;;;;;22.30;98.70;;;;;;5025605;28;20030;-64
2022/09/12 11:29:25;;;;;;;4.45;2.90;;;22.40;99.90;;;;;;4958756;28;19925;-64
2022/09/12 11:31:54;;;;;;;4.60;2.97;;;22.20;99.90;;;;;;5029427;28;20100;-67
2022/09/12 11:34:34;;;;;;;3.78;3.00;;;22.10;99.50;;;;;;5026833;28;20044;-65
2022/09/12 11:37:24;;;;;;;3.38;2.72;;;22.50;99.90;;;;;;5026048;28;20088;-66
2022/09/12 11:39:51;;;;;;;5.35;3.38;;;22.90;99.10;;;;;;5032554;28;20069;-64
2022/09/12 11:42:34;;;;;;;3.58;2.58;;;23.10;95.90;;;;;;5024644;28;20036;-68
2022/09/12 11:45:20;;;;;;;4.25;2.92;;;23.40;97.00;;;;;;5023683;28;21292;-64
2022/09/12 11:47:52;;;;;;;5.70;3.10;;;23.00;97.20;;;;;;5027801;28;20030;-64
2022/09/12 11:50:28;;;;;;;5.00;2.90;;;22.90;97.60;;;;;;5024959;28;20340;-65
2022/09/12 11:53:01;;;;;;;3.47;2.95;;;22.90;97.20;;;;;;5031749;28;20037;-65
2022/09/12 11:55:36;;;;;;;3.67;2.97;;;23.30;99.50;;;;;;5031136;28;20374;-65
2022/09/12 11:58:02;;;;;;;3.80;2.85;;;23.50;96.80;;;;;;5032652;28;20453;-68
2022/09/12 12:00:37;;;;;;;4.43;2.90;;;24.00;97.80;;;;;;5030990;28;20026;-67
2022/09/12 12:03:10;;;;;;;9.25;3.08;;;24.20;95.70;;;;;;5030115;28;20492;-67
2022/09/12 12:05:56;;;;;;;4.53;2.78;;;24.30;94.40;;;;;;5029741;28;20091;-65
2022/09/12 12:08:26;;;;;;;3.17;2.67;;;24.40;94.00;;;;;;5031163;28;20029;-65
2022/09/12 12:11:00;;;;;;;3.53;2.50;;;24.40;93.80;;;;;;5030094;28;20116;-65
2022/09/12 12:13:31;;;;;;;3.42;2.72;;;24.30;93.70;;;;;;5030821;28;20045;-65
2022/09/12 12:16:04;;;;;;;6.28;2.60;;;24.30;93.10;;;;;;5030032;28;20033;-65
2022/09/12 12:18:37;;;;;;;3.70;2.90;;;24.50;93.30;;;;;;5030430;28;20038;-66
2022/09/12 12:21:46;;;;;;;3.05;2.53;;;24.30;93.20;;;;;;5028659;28;20037;-64
2022/09/12 12:24:21;;;;;;;4.35;3.10;;;23.60;93.10;;;;;;4995810;28;20348;-64
2022/09/12 12:26:56;;;;;;;5.78;2.65;;;23.80;96.10;;;;;;5032232;28;20037;-65
2022/09/12 12:29:22;;;;;;;3.90;2.58;;;23.90;93.40;;;;;;5043605;28;20076;-67
2022/09/12 12:32:02;;;;;;;2.97;2.53;;;24.00;92.90;;;;;;5029510;28;20073;-66
2022/09/12 12:34:30;;;;;;;;;;;24.30;95.00;;;;;;5026023;28;20033;-63
2022/09/12 12:36:56;;;;;;;3.53;2.80;;;24.30;93.00;;;;;;5028762;28;19951;-63
2022/09/12 12:40:04;;;;;;;4.50;2.78;;;24.20;91.90;;;;;;5023483;28;20084;-63
2022/09/12 12:42:30;;;;;;;3.30;2.30;;;23.90;91.10;;;;;;5022278;28;20045;-62
2022/09/12 12:44:56;;;;;;;2.42;2.22;;;23.50;93.10;;;;;;5028483;28;20035;-63
2022/09/12 12:47:26;;;;;;;3.38;2.15;;;23.60;92.40;;;;;;5029844;28;20029;-64
2022/09/12 12:50:20;;;;;;;2.88;2.30;;;23.90;90.40;;;;;;5027249;28;20037;-64
2022/09/12 12:52:57;;;;;;;3.58;2.40;;;24.00;87.40;;;;;;5027917;28;20048;-64
2022/09/12 12:55:32;;;;;;;2.65;2.25;;;24.10;85.80;;;;;;5030150;28;20025;-63
2022/09/12 12:58:02;;;;;;;6.00;2.47;;;24.20;83.90;;;;;;5029609;28;20030;-65
2022/09/12 13:00:30;;;;;;;;;;;24.30;83.40;;;;;;5030588;28;20049;-63
2022/09/12 13:03:24;;;;;;;4.20;2.55;;;24.50;89.10;;;;;;5041198;28;19912;-63
2022/09/12 13:05:55;;;;;;;7.43;2.40;;;24.60;90.10;;;;;;5029744;28;20038;-63
2022/09/12 13:08:32;;;;;;;2.28;2.03;;;24.40;93.20;;;;;;5027062;28;20075;-65
2022/09/12 13:11:04;;;;;;;3.38;2.10;;;24.70;89.60;;;;;;5027443;28;20041;-64